<?xml version='1.0' encoding='UTF-8'?><gpx version="1.1" creator="JPX - https://github.com/jenetics/jpx" xmlns="http://www.topografix.com/GPX/1/1"><trk><trkseg><trkpt lat="43.363991608257066" lon="10.821895878085833"><ele>116.00000000000001</ele><time>2026-04-18T08:14:00.999Z</time></trkpt><trkpt lat="43.36399374436896" lon="10.82198505777594"><ele>116.0</ele><time>2026-04-18T08:14:06.999Z</time></trkpt><trkpt lat="43.36402296424728" lon="10.82207417256685"><ele>116.00000000000001</ele><time>2026-04-18T08:14:11.998Z</time></trkpt><trkpt lat="43.36407616589185" lon="10.822125170500389"><ele>116.00000000000001</ele><time>2026-04-18T08:14:17.998Z</time></trkpt><trkpt lat="43.36413782846035" lon="10.822156150547531"><ele>116.0</ele><time>2026-04-18T08:14:22.998Z</time></trkpt><trkpt lat="43.36419778966757" lon="10.822191530545325"><ele>116.00000000000001</ele><time>2026-04-18T08:14:27.998Z</time></trkpt><trkpt lat="43.36425871522383" lon="10.822248875520023"><ele>116.00000000000001</ele><time>2026-04-18T08:14:34.998Z</time></trkpt><trkpt lat="43.364240745420055" lon="10.822333974798001"><ele>116.00000000000001</ele><time>2026-04-18T08:14:42.998Z</time></trkpt><trkpt lat="43.36417579521288" lon="10.822321551134163"><ele>116.0</ele><time>2026-04-18T08:14:47.998Z</time></trkpt><trkpt lat="43.36410931494734" lon="10.822304900644246"><ele>116.00000000000001</ele><time>2026-04-18T08:14:53.998Z</time></trkpt><trkpt lat="43.36404187689079" lon="10.822258814256903"><ele>116.00000000000001</ele><time>2026-04-18T08:15:00.998Z</time></trkpt><trkpt lat="43.36398927352457" lon="10.822194810142948"><ele>116.0</ele><time>2026-04-18T08:15:06.998Z</time></trkpt><trkpt lat="43.363945179826" lon="10.822118101149897"><ele>116.00000000000001</ele><time>2026-04-18T08:15:12.997Z</time></trkpt><trkpt lat="43.36389220237194" lon="10.822050211019091"><ele>116.00000000000001</ele><time>2026-04-18T08:15:18.999Z</time></trkpt><trkpt lat="43.363834669540466" lon="10.822014147621404"><ele>114.14285714285715</ele><time>2026-04-18T08:15:24.999Z</time></trkpt><trkpt lat="43.36376830891703" lon="10.822036803239277"><ele>112.28571428571429</ele><time>2026-04-18T08:15:31.999Z</time></trkpt><trkpt lat="43.36370495553719" lon="10.822024288911548"><ele>110.42857142857143</ele><time>2026-04-18T08:15:51.999Z</time></trkpt><trkpt lat="43.3636349687909" lon="10.822046027817574"><ele>108.57142857142858</ele><time>2026-04-18T08:15:59.999Z</time></trkpt><trkpt lat="43.363563031534476" lon="10.822041502530919"><ele>106.71428571428572</ele><time>2026-04-18T08:16:06.999Z</time></trkpt><trkpt lat="43.36349817561225" lon="10.822041306756333"><ele>104.85714285714285</ele><time>2026-04-18T08:16:12.999Z</time></trkpt><trkpt lat="43.36343177904667" lon="10.822005988091151"><ele>103.0</ele><time>2026-04-18T08:16:20.999Z</time></trkpt><trkpt lat="43.363374117573514" lon="10.821943914390749"><ele>102.99999999999999</ele><time>2026-04-18T08:16:27.999Z</time></trkpt><trkpt lat="43.36332529477811" lon="10.821879894278936"><ele>103.0</ele><time>2026-04-18T08:16:34.998Z</time></trkpt><trkpt lat="43.36326700970019" lon="10.821831261118973"><ele>103.0</ele><time>2026-04-18T08:18:21.999Z</time></trkpt><trkpt lat="43.363207748099825" lon="10.821783830732429"><ele>103.0</ele><time>2026-04-18T08:18:31.999Z</time></trkpt><trkpt lat="43.36314873262154" lon="10.821740632860829"><ele>103.0</ele><time>2026-04-18T08:18:39.999Z</time></trkpt><trkpt lat="43.363090417999274" lon="10.821682584333963"><ele>102.99999999999999</ele><time>2026-04-18T08:18:47.998Z</time></trkpt><trkpt lat="43.363034664085845" lon="10.821629606685256"><ele>103.0</ele><time>2026-04-18T08:18:54.998Z</time></trkpt><trkpt lat="43.362980283025834" lon="10.821575906647091"><ele>102.57142857142857</ele><time>2026-04-18T08:19:00.998Z</time></trkpt><trkpt lat="43.36293465737885" lon="10.821502707885276"><ele>102.14285714285714</ele><time>2026-04-18T08:19:07.998Z</time></trkpt><trkpt lat="43.36288410009621" lon="10.82143560041821"><ele>101.71428571428572</ele><time>2026-04-18T08:19:14.998Z</time></trkpt><trkpt lat="43.36283612305651" lon="10.821371724135592"><ele>101.28571428571428</ele><time>2026-04-18T08:19:26Z</time></trkpt><trkpt lat="43.36276834798334" lon="10.821373222831653"><ele>100.85714285714286</ele><time>2026-04-18T08:19:32Z</time></trkpt><trkpt lat="43.362700028655254" lon="10.821351577497147"><ele>100.42857142857143</ele><time>2026-04-18T08:19:39Z</time></trkpt><trkpt lat="43.362628572630136" lon="10.821328365599504"><ele>100.0</ele><time>2026-04-18T08:19:46Z</time></trkpt><trkpt lat="43.36256110913157" lon="10.82131488198309"><ele>100.00000000000001</ele><time>2026-04-18T08:19:52Z</time></trkpt><trkpt lat="43.36249431194852" lon="10.821317109300889"><ele>100.0</ele><time>2026-04-18T08:19:59Z</time></trkpt><trkpt lat="43.36242006750073" lon="10.821281188069422"><ele>100.0</ele><time>2026-04-18T08:20:05.999Z</time></trkpt><trkpt lat="43.36235011030386" lon="10.821289381423847"><ele>100.0</ele><time>2026-04-18T08:20:12.999Z</time></trkpt><trkpt lat="43.362283479674616" lon="10.821278577968165"><ele>100.0</ele><time>2026-04-18T08:20:18.999Z</time></trkpt><trkpt lat="43.362216881586946" lon="10.821255011384057"><ele>100.00000000000001</ele><time>2026-04-18T08:20:24.999Z</time></trkpt><trkpt lat="43.362157975428" lon="10.821286019158768"><ele>100.0</ele><time>2026-04-18T08:20:30.999Z</time></trkpt><trkpt lat="43.362211447779515" lon="10.8213485055666"><ele>100.00000000000001</ele><time>2026-04-18T08:20:39.999Z</time></trkpt><trkpt lat="43.36227751004611" lon="10.821346027279924"><ele>100.0</ele><time>2026-04-18T08:20:46.999Z</time></trkpt><trkpt lat="43.3623486119999" lon="10.821372688333765"><ele>100.0</ele><time>2026-04-18T08:20:53.999Z</time></trkpt><trkpt lat="43.362411359867" lon="10.821400956284629"><ele>100.0</ele><time>2026-04-18T08:21:00.999Z</time></trkpt><trkpt lat="43.362473622242476" lon="10.821430258167945"><ele>100.0</ele><time>2026-04-18T08:21:09.998Z</time></trkpt><trkpt lat="43.36253082099229" lon="10.821471296191651"><ele>100.00000000000001</ele><time>2026-04-18T08:21:17.998Z</time></trkpt><trkpt lat="43.3625784831251" lon="10.82153489592785"><ele>100.0</ele><time>2026-04-18T08:21:24.998Z</time></trkpt><trkpt lat="43.36263080032152" lon="10.821600115032695"><ele>100.00000000000001</ele><time>2026-04-18T08:21:32Z</time></trkpt><trkpt lat="43.36267957618477" lon="10.8216574488149"><ele>100.0</ele><time>2026-04-18T08:21:38Z</time></trkpt><trkpt lat="43.36271514308752" lon="10.821735512629013"><ele>100.0</ele><time>2026-04-18T08:21:47Z</time></trkpt><trkpt lat="43.36269141462911" lon="10.82182944332548"><ele>100.0</ele><time>2026-04-18T08:21:59Z</time></trkpt><trkpt lat="43.36274459235976" lon="10.821893931039028"><ele>100.0</ele><time>2026-04-18T08:22:06Z</time></trkpt><trkpt lat="43.36280157441783" lon="10.821941161661279"><ele>100.00000000000001</ele><time>2026-04-18T08:22:11.999Z</time></trkpt><trkpt lat="43.362835313039895" lon="10.822027385783462"><ele>100.0</ele><time>2026-04-18T08:22:19.999Z</time></trkpt><trkpt lat="43.362835360493705" lon="10.822115324413126"><ele>98.57142857142858</ele><time>2026-04-18T08:22:30.999Z</time></trkpt><trkpt lat="43.362783381124856" lon="10.822181213986342"><ele>97.14285714285714</ele><time>2026-04-18T08:22:39.999Z</time></trkpt><trkpt lat="43.36275506588555" lon="10.822262300978602"><ele>95.71428571428572</ele><time>2026-04-18T08:22:48.999Z</time></trkpt><trkpt lat="43.36275212789815" lon="10.822356397463208"><ele>94.28571428571429</ele><time>2026-04-18T08:22:57.999Z</time></trkpt><trkpt lat="43.362776068561004" lon="10.822437397406594"><ele>92.85714285714286</ele><time>2026-04-18T08:23:04.999Z</time></trkpt><trkpt lat="43.36281040069801" lon="10.822515976205384"><ele>91.42857142857143</ele><time>2026-04-18T08:23:11.998Z</time></trkpt><trkpt lat="43.36287961264104" lon="10.822490613915258"><ele>90.0</ele><time>2026-04-18T08:23:21.998Z</time></trkpt><trkpt lat="43.36293763619351" lon="10.822455815059028"><ele>90.0</ele><time>2026-04-18T08:23:32.998Z</time></trkpt><trkpt lat="43.36300415545017" lon="10.822425231911243"><ele>90.0</ele><time>2026-04-18T08:23:44Z</time></trkpt><trkpt lat="43.36306291345739" lon="10.822381937821792"><ele>90.0</ele><time>2026-04-18T08:23:55Z</time></trkpt><trkpt lat="43.36312845416817" lon="10.822367371964232"><ele>90.0</ele><time>2026-04-18T08:24:07Z</time></trkpt><trkpt lat="43.36319088235794" lon="10.822385859612229"><ele>90.0</ele><time>2026-04-18T08:24:16.999Z</time></trkpt><trkpt lat="43.3632493531779" lon="10.82242097267868"><ele>90.0</ele><time>2026-04-18T08:24:23.999Z</time></trkpt><trkpt lat="43.36330351196684" lon="10.822478188390736"><ele>90.0</ele><time>2026-04-18T08:24:33.999Z</time></trkpt><trkpt lat="43.36336152828353" lon="10.822518888148961"><ele>91.85714285714285</ele><time>2026-04-18T08:24:52.999Z</time></trkpt><trkpt lat="43.363423955513404" lon="10.822544282112773"><ele>93.71428571428572</ele><time>2026-04-18T08:25:00.999Z</time></trkpt><trkpt lat="43.36349180077486" lon="10.822576639731585"><ele>95.57142857142857</ele><time>2026-04-18T08:25:10.998Z</time></trkpt><trkpt lat="43.363558578856015" lon="10.822566596928963"><ele>97.42857142857142</ele><time>2026-04-18T08:25:20.998Z</time></trkpt><trkpt lat="43.36362352811312" lon="10.822535424735975"><ele>99.28571428571428</ele><time>2026-04-18T08:25:32.998Z</time></trkpt><trkpt lat="43.363665037863136" lon="10.822469903954117"><ele>101.14285714285714</ele><time>2026-04-18T08:25:42.998Z</time></trkpt><trkpt lat="43.36372187957135" lon="10.822421883587813"><ele>103.0</ele><time>2026-04-18T08:25:53Z</time></trkpt><trkpt lat="43.36378185474735" lon="10.822375361656828"><ele>102.99999999999999</ele><time>2026-04-18T08:26:01Z</time></trkpt><trkpt lat="43.3638474721693" lon="10.822363350718614"><ele>103.0</ele><time>2026-04-18T08:26:11Z</time></trkpt><trkpt lat="43.36391116788005" lon="10.822370699171373"><ele>103.0</ele><time>2026-04-18T08:26:20.999Z</time></trkpt><trkpt lat="43.36397688285496" lon="10.822379768395702"><ele>103.0</ele><time>2026-04-18T08:26:28.999Z</time></trkpt><trkpt lat="43.36403492650859" lon="10.822434911094318"><ele>103.0</ele><time>2026-04-18T08:26:35.999Z</time></trkpt><trkpt lat="43.36408827037035" lon="10.822481932561947"><ele>102.99999999999999</ele><time>2026-04-18T08:26:42.999Z</time></trkpt><trkpt lat="43.364142144548936" lon="10.822536138158958"><ele>103.0</ele><time>2026-04-18T08:26:49.999Z</time></trkpt><trkpt lat="43.364197853906795" lon="10.822594731751437"><ele>103.28571428571428</ele><time>2026-04-18T08:27:15.998Z</time></trkpt><trkpt lat="43.36425939005996" lon="10.822655476831338"><ele>103.57142857142857</ele><time>2026-04-18T08:27:23.998Z</time></trkpt><trkpt lat="43.36430431634306" lon="10.822717921920347"><ele>103.85714285714286</ele><time>2026-04-18T08:27:30.998Z</time></trkpt><trkpt lat="43.364360583161" lon="10.82277764234372"><ele>104.14285714285714</ele><time>2026-04-18T08:27:38.998Z</time></trkpt><trkpt lat="43.36439617729883" lon="10.822874652526716"><ele>104.42857142857143</ele><time>2026-04-18T08:27:51Z</time></trkpt><trkpt lat="43.364429655071405" lon="10.822953152233987"><ele>104.71428571428571</ele><time>2026-04-18T08:27:59Z</time></trkpt><trkpt lat="43.36446915476417" lon="10.823028010711797"><ele>105.0</ele><time>2026-04-18T08:28:07Z</time></trkpt><trkpt lat="43.3644795025856" lon="10.82311618588816"><ele>105.0</ele><time>2026-04-18T08:28:15Z</time></trkpt><trkpt lat="43.36449135644441" lon="10.8232093734126"><ele>105.0</ele><time>2026-04-18T08:28:22Z</time></trkpt><trkpt lat="43.364501148952975" lon="10.823299365421741"><ele>105.0</ele><time>2026-04-18T08:28:29.999Z</time></trkpt><trkpt lat="43.364520534146756" lon="10.823388182423468"><ele>105.0</ele><time>2026-04-18T08:28:36.999Z</time></trkpt><trkpt lat="43.3644968517928" lon="10.82347207163799"><ele>105.0</ele><time>2026-04-18T08:30:01.999Z</time></trkpt><trkpt lat="43.36451609795175" lon="10.823559955232964"><ele>105.0</ele><time>2026-04-18T08:30:08.999Z</time></trkpt><trkpt lat="43.364530069304976" lon="10.823657848290745"><ele>105.0</ele><time>2026-04-18T08:30:16.999Z</time></trkpt><trkpt lat="43.36454746082322" lon="10.823744785955087"><ele>104.28571428571429</ele><time>2026-04-18T08:30:22.999Z</time></trkpt><trkpt lat="43.364579320011494" lon="10.82383338966191"><ele>103.57142857142857</ele><time>2026-04-18T08:30:28.999Z</time></trkpt><trkpt lat="43.36462382446552" lon="10.823902790815112"><ele>102.85714285714286</ele><time>2026-04-18T08:30:34.999Z</time></trkpt><trkpt lat="43.364667445148946" lon="10.823976543820539"><ele>102.14285714285714</ele><time>2026-04-18T08:30:40.999Z</time></trkpt><trkpt lat="43.36471225011992" lon="10.824045842108537"><ele>101.42857142857143</ele><time>2026-04-18T08:30:47.999Z</time></trkpt><trkpt lat="43.36475752381425" lon="10.824118286085822"><ele>100.71428571428572</ele><time>2026-04-18T08:30:53.999Z</time></trkpt><trkpt lat="43.36480490352762" lon="10.824187525423044"><ele>100.0</ele><time>2026-04-18T08:30:59.999Z</time></trkpt><trkpt lat="43.364855889439795" lon="10.824258944261599"><ele>101.57142857142858</ele><time>2026-04-18T08:31:06.999Z</time></trkpt><trkpt lat="43.364902597393865" lon="10.824336152335276"><ele>103.14285714285714</ele><time>2026-04-18T08:31:12.998Z</time></trkpt><trkpt lat="43.364952639453136" lon="10.824389251335448"><ele>104.71428571428572</ele><time>2026-04-18T08:31:18.998Z</time></trkpt><trkpt lat="43.365003691908086" lon="10.824443196418745"><ele>106.28571428571429</ele><time>2026-04-18T08:31:24.998Z</time></trkpt><trkpt lat="43.36505275143272" lon="10.824503410132614"><ele>107.85714285714286</ele><time>2026-04-18T08:31:29.998Z</time></trkpt><trkpt lat="43.36505024988759" lon="10.824593081599287"><ele>109.42857142857143</ele><time>2026-04-18T08:31:38.998Z</time></trkpt><trkpt lat="43.36505055883885" lon="10.82468807323133"><ele>111.0</ele><time>2026-04-18T08:31:48.998Z</time></trkpt><trkpt lat="43.365017378430146" lon="10.824763662146529"><ele>111.0</ele><time>2026-04-18T08:31:54.998Z</time></trkpt><trkpt lat="43.36498166448824" lon="10.824849568250476"><ele>111.0</ele><time>2026-04-18T08:32:00.999Z</time></trkpt><trkpt lat="43.36498897321804" lon="10.824940666314113"><ele>111.0</ele><time>2026-04-18T08:32:07.999Z</time></trkpt><trkpt lat="43.364998824118" lon="10.825026224801118"><ele>111.0</ele><time>2026-04-18T08:32:25.999Z</time></trkpt><trkpt lat="43.36502178919959" lon="10.825113492715635"><ele>111.0</ele><time>2026-04-18T08:32:31.999Z</time></trkpt><trkpt lat="43.36504468069145" lon="10.825202486251158"><ele>111.0</ele><time>2026-04-18T08:32:37.999Z</time></trkpt><trkpt lat="43.36507109993932" lon="10.825286214947699"><ele>111.0</ele><time>2026-04-18T08:32:44.999Z</time></trkpt><trkpt lat="43.36510719886057" lon="10.825370685935356"><ele>111.0</ele><time>2026-04-18T08:32:52.999Z</time></trkpt><trkpt lat="43.36516683585895" lon="10.825414217112936"><ele>111.0</ele><time>2026-04-18T08:33:18.998Z</time></trkpt><trkpt lat="43.36519899406649" lon="10.825330648836896"><ele>111.0</ele><time>2026-04-18T08:33:45.998Z</time></trkpt><trkpt lat="43.36525064402525" lon="10.825261239741735"><ele>111.0</ele><time>2026-04-18T08:34:00.998Z</time></trkpt><trkpt lat="43.36526373736352" lon="10.825170546875048"><ele>111.0</ele><time>2026-04-18T08:34:07Z</time></trkpt><trkpt lat="43.365280286414645" lon="10.825080547355416"><ele>111.0</ele><time>2026-04-18T08:34:14Z</time></trkpt><trkpt lat="43.36528112107411" lon="10.824987929750604"><ele>111.0</ele><time>2026-04-18T08:34:29Z</time></trkpt><trkpt lat="43.36530272039256" lon="10.824905626351345"><ele>111.0</ele><time>2026-04-18T08:34:34.999Z</time></trkpt><trkpt lat="43.36531215953777" lon="10.824803538846634"><ele>111.0</ele><time>2026-04-18T08:34:42.999Z</time></trkpt><trkpt lat="43.365309097542514" lon="10.824711422905134"><ele>111.0</ele><time>2026-04-18T08:34:51.999Z</time></trkpt><trkpt lat="43.36530419960226" lon="10.824618970529382"><ele>111.0</ele><time>2026-04-18T08:34:58.999Z</time></trkpt><trkpt lat="43.36531087079326" lon="10.824520853982632"><ele>111.0</ele><time>2026-04-18T08:35:05.999Z</time></trkpt><trkpt lat="43.36530682108786" lon="10.824423695639181"><ele>111.0</ele><time>2026-04-18T08:35:11.999Z</time></trkpt><trkpt lat="43.36528699545164" lon="10.824338802643638"><ele>111.0</ele><time>2026-04-18T08:35:19.999Z</time></trkpt><trkpt lat="43.36525656964752" lon="10.8242539436709"><ele>111.28571428571428</ele><time>2026-04-18T08:35:27.999Z</time></trkpt><trkpt lat="43.36523064712163" lon="10.824170621687362"><ele>111.57142857142858</ele><time>2026-04-18T08:35:33.999Z</time></trkpt><trkpt lat="43.365180132622555" lon="10.82409629453541"><ele>111.85714285714286</ele><time>2026-04-18T08:35:41.998Z</time></trkpt><trkpt lat="43.36513281178333" lon="10.824037456418061"><ele>112.14285714285714</ele><time>2026-04-18T08:35:48.998Z</time></trkpt><trkpt lat="43.365086689234545" lon="10.823969394139157"><ele>112.42857142857142</ele><time>2026-04-18T08:35:56.998Z</time></trkpt><trkpt lat="43.365032450808755" lon="10.823911930842703"><ele>112.71428571428572</ele><time>2026-04-18T08:36:02.998Z</time></trkpt><trkpt lat="43.36498139798641" lon="10.82384562759137"><ele>113.0</ele><time>2026-04-18T08:36:07.998Z</time></trkpt><trkpt lat="43.36492892841336" lon="10.823797716521582"><ele>113.0</ele><time>2026-04-18T08:36:14Z</time></trkpt><trkpt lat="43.364889984220135" lon="10.823723420946648"><ele>113.0</ele><time>2026-04-18T08:36:22Z</time></trkpt><trkpt lat="43.36483681650324" lon="10.823659471941209"><ele>113.0</ele><time>2026-04-18T08:36:44Z</time></trkpt><trkpt lat="43.364780537828885" lon="10.823610162204128"><ele>113.0</ele><time>2026-04-18T08:36:52Z</time></trkpt><trkpt lat="43.36473446045155" lon="10.823550047063978"><ele>113.0</ele><time>2026-04-18T08:36:58.999Z</time></trkpt><trkpt lat="43.36469028475153" lon="10.82348535210625"><ele>113.0</ele><time>2026-04-18T08:37:05.999Z</time></trkpt><trkpt lat="43.36464721168744" lon="10.823421865660116"><ele>113.0</ele><time>2026-04-18T08:37:13.999Z</time></trkpt><trkpt lat="43.36462727231808" lon="10.823325685082702"><ele>113.85714285714286</ele><time>2026-04-18T08:37:34.999Z</time></trkpt><trkpt lat="43.36464253192064" lon="10.82323630995022"><ele>114.71428571428571</ele><time>2026-04-18T08:37:44.999Z</time></trkpt><trkpt lat="43.36467209399622" lon="10.823156256221532"><ele>115.57142857142857</ele><time>2026-04-18T08:37:49.999Z</time></trkpt><trkpt lat="43.36470931606703" lon="10.823069323075877"><ele>116.42857142857143</ele><time>2026-04-18T08:37:57.999Z</time></trkpt><trkpt lat="43.36477475757698" lon="10.823031116146334"><ele>117.28571428571428</ele><time>2026-04-18T08:38:05.998Z</time></trkpt><trkpt lat="43.36484068404306" lon="10.823044121806314"><ele>118.14285714285714</ele><time>2026-04-18T08:38:12.998Z</time></trkpt><trkpt lat="43.364901129073516" lon="10.823082527764834"><ele>119.0</ele><time>2026-04-18T08:38:24Z</time></trkpt><trkpt lat="43.36494819608499" lon="10.823151126821926"><ele>119.0</ele><time>2026-04-18T08:38:37Z</time></trkpt><trkpt lat="43.36499209011033" lon="10.82323261702025"><ele>119.0</ele><time>2026-04-18T08:38:44Z</time></trkpt><trkpt lat="43.36502951076295" lon="10.823311373347229"><ele>119.0</ele><time>2026-04-18T08:38:51Z</time></trkpt><trkpt lat="43.365063363300834" lon="10.823390155430445"><ele>119.0</ele><time>2026-04-18T08:39:01.999Z</time></trkpt><trkpt lat="43.36509541542722" lon="10.82347205299616"><ele>119.0</ele><time>2026-04-18T08:39:08.999Z</time></trkpt><trkpt lat="43.36510984002807" lon="10.823563829892871"><ele>119.0</ele><time>2026-04-18T08:39:15.999Z</time></trkpt><trkpt lat="43.365143333055194" lon="10.823637979661786"><ele>119.0</ele><time>2026-04-18T08:39:24.999Z</time></trkpt><trkpt lat="43.36517576072069" lon="10.823722677969675"><ele>118.14285714285714</ele><time>2026-04-18T08:39:31.999Z</time></trkpt><trkpt lat="43.365204989148616" lon="10.823803377540992"><ele>117.28571428571428</ele><time>2026-04-18T08:39:37.999Z</time></trkpt><trkpt lat="43.365230502190244" lon="10.823894027828311"><ele>116.42857142857143</ele><time>2026-04-18T08:39:42.999Z</time></trkpt><trkpt lat="43.365268459832905" lon="10.823978919197335"><ele>115.57142857142857</ele><time>2026-04-18T08:39:57.999Z</time></trkpt><trkpt lat="43.36531267265189" lon="10.824054377830208"><ele>114.71428571428571</ele><time>2026-04-18T08:40:05.998Z</time></trkpt><trkpt lat="43.365349098436596" lon="10.824131397636792"><ele>113.85714285714286</ele><time>2026-04-18T08:40:11.998Z</time></trkpt><trkpt lat="43.36538375949571" lon="10.824219454909544"><ele>113.0</ele><time>2026-04-18T08:40:18.998Z</time></trkpt><trkpt lat="43.36541979090949" lon="10.824306327707404"><ele>112.71428571428572</ele><time>2026-04-18T08:40:50Z</time></trkpt><trkpt lat="43.36544415195956" lon="10.824390437539115"><ele>112.42857142857142</ele><time>2026-04-18T08:40:59Z</time></trkpt><trkpt lat="43.365476497435345" lon="10.824471037687493"><ele>112.14285714285714</ele><time>2026-04-18T08:41:08Z</time></trkpt><trkpt lat="43.36549071395824" lon="10.824571255041615"><ele>111.85714285714286</ele><time>2026-04-18T08:41:14.999Z</time></trkpt><trkpt lat="43.365497971205016" lon="10.824670019679496"><ele>111.57142857142858</ele><time>2026-04-18T08:41:21.999Z</time></trkpt><trkpt lat="43.36549748358389" lon="10.824769936672833"><ele>111.28571428571428</ele><time>2026-04-18T08:41:28.999Z</time></trkpt><trkpt lat="43.36547450354389" lon="10.824867755302535"><ele>111.0</ele><time>2026-04-18T08:41:34.999Z</time></trkpt><trkpt lat="43.36544817234304" lon="10.82494857596993"><ele>111.0</ele><time>2026-04-18T08:41:40.999Z</time></trkpt><trkpt lat="43.365432990608234" lon="10.825045939275213"><ele>111.0</ele><time>2026-04-18T08:41:46.999Z</time></trkpt><trkpt lat="43.36540593098273" lon="10.82514775280291"><ele>111.0</ele><time>2026-04-18T08:41:57.999Z</time></trkpt><trkpt lat="43.36538439317426" lon="10.825245502576362"><ele>111.0</ele><time>2026-04-18T08:42:03.999Z</time></trkpt><trkpt lat="43.36534978804655" lon="10.825326638531758"><ele>111.0</ele><time>2026-04-18T08:42:10.999Z</time></trkpt><trkpt lat="43.36530795957427" lon="10.825408194465224"><ele>111.0</ele><time>2026-04-18T08:42:17.999Z</time></trkpt><trkpt lat="43.36527002759627" lon="10.825479166913365"><ele>111.0</ele><time>2026-04-18T08:42:25.998Z</time></trkpt><trkpt lat="43.36522941649501" lon="10.825547532464553"><ele>110.85714285714285</ele><time>2026-04-18T08:42:44Z</time></trkpt><trkpt lat="43.36519673250905" lon="10.82563432094821"><ele>110.71428571428572</ele><time>2026-04-18T08:42:51Z</time></trkpt><trkpt lat="43.36518593372257" lon="10.82572519042418"><ele>110.57142857142857</ele><time>2026-04-18T08:42:57Z</time></trkpt><trkpt lat="43.365177972468025" lon="10.825818654250552"><ele>110.42857142857142</ele><time>2026-04-18T08:43:03Z</time></trkpt><trkpt lat="43.36520536375398" lon="10.825916433916868"><ele>110.28571428571428</ele><time>2026-04-18T08:43:10Z</time></trkpt><trkpt lat="43.36521961118616" lon="10.82601391326535"><ele>110.14285714285714</ele><time>2026-04-18T08:43:15Z</time></trkpt><trkpt lat="43.365275568111265" lon="10.826081387053065"><ele>110.0</ele><time>2026-04-18T08:43:23.999Z</time></trkpt><trkpt lat="43.365339681046386" lon="10.826122998802191"><ele>110.28571428571428</ele><time>2026-04-18T08:43:30.999Z</time></trkpt><trkpt lat="43.36538256935535" lon="10.826193744023588"><ele>110.57142857142857</ele><time>2026-04-18T08:43:42.999Z</time></trkpt><trkpt lat="43.36541867983134" lon="10.826284559622293"><ele>110.85714285714286</ele><time>2026-04-18T08:43:48.999Z</time></trkpt><trkpt lat="43.36544442748437" lon="10.826370080973966"><ele>111.14285714285714</ele><time>2026-04-18T08:43:55.999Z</time></trkpt><trkpt lat="43.36545293229769" lon="10.826469059857855"><ele>111.42857142857143</ele><time>2026-04-18T08:44:01.999Z</time></trkpt><trkpt lat="43.365462050239316" lon="10.826568493284553"><ele>111.71428571428571</ele><time>2026-04-18T08:44:07.999Z</time></trkpt><trkpt lat="43.3654547912065" lon="10.82666890424728"><ele>112.0</ele><time>2026-04-18T08:44:15.999Z</time></trkpt><trkpt lat="43.36547610224679" lon="10.826760392521367"><ele>112.42857142857143</ele><time>2026-04-18T08:44:23.999Z</time></trkpt><trkpt lat="43.365515321165034" lon="10.826837440081965"><ele>112.85714285714286</ele><time>2026-04-18T08:44:47Z</time></trkpt><trkpt lat="43.36558113458285" lon="10.82683767007819"><ele>113.28571428571428</ele><time>2026-04-18T08:44:54Z</time></trkpt><trkpt lat="43.36564143617522" lon="10.826803826714366"><ele>113.71428571428571</ele><time>2026-04-18T08:45:01Z</time></trkpt><trkpt lat="43.36567295252448" lon="10.826713630891678"><ele>114.14285714285714</ele><time>2026-04-18T08:45:09Z</time></trkpt><trkpt lat="43.365650494379665" lon="10.826623320192652"><ele>114.57142857142856</ele><time>2026-04-18T08:45:16Z</time></trkpt><trkpt lat="43.36563332802125" lon="10.826533705767194"><ele>114.99999999999999</ele><time>2026-04-18T08:45:24Z</time></trkpt><trkpt lat="43.365616630946995" lon="10.826448194988902"><ele>114.57142857142856</ele><time>2026-04-18T08:45:35.999Z</time></trkpt><trkpt lat="43.36558401793927" lon="10.82637288732681"><ele>114.14285714285714</ele><time>2026-04-18T08:45:41.999Z</time></trkpt><trkpt lat="43.36556539106374" lon="10.826279737145006"><ele>113.71428571428571</ele><time>2026-04-18T08:45:47.999Z</time></trkpt><trkpt lat="43.3655169575019" lon="10.826221573991306"><ele>113.28571428571428</ele><time>2026-04-18T08:45:53.999Z</time></trkpt><trkpt lat="43.365481521316546" lon="10.826139100129211"><ele>112.85714285714286</ele><time>2026-04-18T08:46:00.999Z</time></trkpt><trkpt lat="43.36544223267197" lon="10.826069398959682"><ele>112.42857142857143</ele><time>2026-04-18T08:46:05.999Z</time></trkpt><trkpt lat="43.3654101197158" lon="10.825988153739901"><ele>112.0</ele><time>2026-04-18T08:46:11.999Z</time></trkpt><trkpt lat="43.36536935952931" lon="10.825911395996181"><ele>111.71428571428571</ele><time>2026-04-18T08:46:18.999Z</time></trkpt><trkpt lat="43.365363398682014" lon="10.825824557311568"><ele>111.42857142857143</ele><time>2026-04-18T08:46:25.999Z</time></trkpt><trkpt lat="43.365370188962316" lon="10.825733464957336"><ele>111.14285714285714</ele><time>2026-04-18T08:46:32.999Z</time></trkpt><trkpt lat="43.36540753575879" lon="10.825656666104077"><ele>110.85714285714286</ele><time>2026-04-18T08:47:04Z</time></trkpt><trkpt lat="43.36547545605801" lon="10.825611468742496"><ele>110.57142857142857</ele><time>2026-04-18T08:47:14Z</time></trkpt><trkpt lat="43.365541761690544" lon="10.82560241620853"><ele>110.28571428571428</ele><time>2026-04-18T08:47:22Z</time></trkpt><trkpt lat="43.36560054848205" lon="10.825567286576268"><ele>110.0</ele><time>2026-04-18T08:47:29Z</time></trkpt><trkpt lat="43.36566577086222" lon="10.825535514808985"><ele>112.28571428571428</ele><time>2026-04-18T08:47:37Z</time></trkpt><trkpt lat="43.36570173100364" lon="10.825458807761391"><ele>114.57142857142857</ele><time>2026-04-18T08:47:44.999Z</time></trkpt><trkpt lat="43.36575526088665" lon="10.825525240356205"><ele>116.85714285714286</ele><time>2026-04-18T08:47:52.999Z</time></trkpt><trkpt lat="43.36571975214176" lon="10.825605068160566"><ele>119.14285714285714</ele><time>2026-04-18T08:47:59.999Z</time></trkpt><trkpt lat="43.36566602958016" lon="10.825658045899148"><ele>121.42857142857143</ele><time>2026-04-18T08:48:07.999Z</time></trkpt><trkpt lat="43.365622900141396" lon="10.825738931336996"><ele>123.71428571428571</ele><time>2026-04-18T08:48:16.999Z</time></trkpt><trkpt lat="43.36558270956336" lon="10.825816558543075"><ele>126.0</ele><time>2026-04-18T08:48:30.999Z</time></trkpt><trkpt lat="43.365563100856924" lon="10.825904784216576"><ele>125.28571428571428</ele><time>2026-04-18T08:48:40.998Z</time></trkpt><trkpt lat="43.36554501592093" lon="10.825998786799913"><ele>124.57142857142857</ele><time>2026-04-18T08:48:48Z</time></trkpt><trkpt lat="43.36555944433053" lon="10.82608577863199"><ele>123.85714285714286</ele><time>2026-04-18T08:49:03Z</time></trkpt><trkpt lat="43.36559623629778" lon="10.826161583864744"><ele>123.14285714285714</ele><time>2026-04-18T08:49:09Z</time></trkpt><trkpt lat="43.36563263873788" lon="10.826234263957529"><ele>122.42857142857142</ele><time>2026-04-18T08:49:15Z</time></trkpt><trkpt lat="43.365682415599146" lon="10.826288239532566"><ele>121.71428571428571</ele><time>2026-04-18T08:49:20Z</time></trkpt><trkpt lat="43.365736478527715" lon="10.826336215810713"><ele>121.0</ele><time>2026-04-18T08:49:27Z</time></trkpt><trkpt lat="43.36580062207088" lon="10.826334147037157"><ele>121.0</ele><time>2026-04-18T08:49:33Z</time></trkpt><trkpt lat="43.36586236436152" lon="10.82638748878942"><ele>120.99999999999999</ele><time>2026-04-18T08:49:42Z</time></trkpt><trkpt lat="43.365921789350985" lon="10.826417650773026"><ele>121.0</ele><time>2026-04-18T08:49:48.999Z</time></trkpt><trkpt lat="43.3659850324277" lon="10.826464828655187"><ele>121.0</ele><time>2026-04-18T08:49:54.999Z</time></trkpt><trkpt lat="43.36604375591584" lon="10.826497044371196"><ele>120.99999999999999</ele><time>2026-04-18T08:50:01.999Z</time></trkpt><trkpt lat="43.36607626433682" lon="10.826577481817898"><ele>121.0</ele><time>2026-04-18T08:50:08.999Z</time></trkpt><trkpt lat="43.36610126274683" lon="10.826667182233232"><ele>121.0</ele><time>2026-04-18T08:50:16.999Z</time></trkpt><trkpt lat="43.36606085701431" lon="10.826742820344974"><ele>121.0</ele><time>2026-04-18T08:50:25.999Z</time></trkpt><trkpt lat="43.36599594330804" lon="10.826745708878018"><ele>120.99999999999999</ele><time>2026-04-18T08:50:32.999Z</time></trkpt><trkpt lat="43.36592702191013" lon="10.826750601902551"><ele>121.0</ele><time>2026-04-18T08:50:40.999Z</time></trkpt><trkpt lat="43.36586361922378" lon="10.826739660927334"><ele>121.0</ele><time>2026-04-18T08:50:46.998Z</time></trkpt><trkpt lat="43.36580963485014" lon="10.826801125986915"><ele>120.99999999999999</ele><time>2026-04-18T08:50:56Z</time></trkpt><trkpt lat="43.36577105503353" lon="10.826876077700147"><ele>121.0</ele><time>2026-04-18T08:51:05Z</time></trkpt><trkpt lat="43.365729531492185" lon="10.826948415275332"><ele>121.0</ele><time>2026-04-18T08:51:15Z</time></trkpt><trkpt lat="43.36573530353846" lon="10.827042539876018"><ele>120.57142857142857</ele><time>2026-04-18T08:51:29Z</time></trkpt><trkpt lat="43.36575701720341" lon="10.827140731427322"><ele>120.14285714285714</ele><time>2026-04-18T08:51:38Z</time></trkpt><trkpt lat="43.36581543831862" lon="10.827186214166696"><ele>119.71428571428571</ele><time>2026-04-18T08:51:46Z</time></trkpt><trkpt lat="43.365878298294874" lon="10.827227289041259"><ele>119.28571428571428</ele><time>2026-04-18T08:51:53.999Z</time></trkpt><trkpt lat="43.365944094300374" lon="10.82718999366878"><ele>118.85714285714286</ele><time>2026-04-18T08:52:00.999Z</time></trkpt><trkpt lat="43.36598060168049" lon="10.827112548929986"><ele>118.42857142857142</ele><time>2026-04-18T08:52:07.999Z</time></trkpt><trkpt lat="43.36599838126409" lon="10.827028186835525"><ele>118.0</ele><time>2026-04-18T08:52:14.999Z</time></trkpt><trkpt lat="43.36605500370838" lon="10.826970937116972"><ele>118.0</ele><time>2026-04-18T08:52:23.999Z</time></trkpt><trkpt lat="43.36612482821025" lon="10.826972937294435"><ele>118.0</ele><time>2026-04-18T08:52:33.999Z</time></trkpt><trkpt lat="43.366170427306" lon="10.827035759757413"><ele>118.0</ele><time>2026-04-18T08:52:39.999Z</time></trkpt><trkpt lat="43.36619862373203" lon="10.82713020160475"><ele>118.0</ele><time>2026-04-18T08:52:46.998Z</time></trkpt><trkpt lat="43.366215822712924" lon="10.827224073928488"><ele>118.0</ele><time>2026-04-18T08:52:54.998Z</time></trkpt><trkpt lat="43.36622992702805" lon="10.827315700988043"><ele>118.0</ele><time>2026-04-18T08:53:03Z</time></trkpt><trkpt lat="43.36622118922867" lon="10.827406457101672"><ele>118.0</ele><time>2026-04-18T08:53:10Z</time></trkpt><trkpt lat="43.366265023846964" lon="10.82747414452713"><ele>118.0</ele><time>2026-04-18T08:56:40.999Z</time></trkpt><trkpt lat="43.366310136646845" lon="10.827397603860678"><ele>118.0</ele><time>2026-04-18T08:56:45.999Z</time></trkpt><trkpt lat="43.366332708359174" lon="10.827314753591228"><ele>118.0</ele><time>2026-04-18T08:56:51.999Z</time></trkpt><trkpt lat="43.366331524411216" lon="10.827226750630441"><ele>118.0</ele><time>2026-04-18T08:57:22Z</time></trkpt><trkpt lat="43.36629660801272" lon="10.82715170447426"><ele>118.0</ele><time>2026-04-18T08:57:57Z</time></trkpt><trkpt lat="43.36627917996505" lon="10.827065794120474"><ele>118.0</ele><time>2026-04-18T08:58:07.999Z</time></trkpt><trkpt lat="43.36634308287803" lon="10.82702711034845"><ele>118.0</ele><time>2026-04-18T08:58:45.999Z</time></trkpt><trkpt lat="43.36639243146933" lon="10.827089510789056"><ele>118.85714285714286</ele><time>2026-04-18T08:59:34Z</time></trkpt><trkpt lat="43.36642104993368" lon="10.827178555825737"><ele>119.71428571428572</ele><time>2026-04-18T08:59:46Z</time></trkpt><trkpt lat="43.36643529402715" lon="10.827264677961383"><ele>120.57142857142858</ele><time>2026-04-18T08:59:54Z</time></trkpt><trkpt lat="43.366436235487626" lon="10.827365970164312"><ele>121.42857142857143</ele><time>2026-04-18T09:00:02Z</time></trkpt><trkpt lat="43.3664400468684" lon="10.827455129962429"><ele>122.2857142857143</ele><time>2026-04-18T09:00:21.999Z</time></trkpt><trkpt lat="43.3664649956536" lon="10.827539564016547"><ele>123.14285714285715</ele><time>2026-04-18T09:00:36.999Z</time></trkpt><trkpt lat="43.36647648987686" lon="10.827626295413713"><ele>124.0</ele><time>2026-04-18T09:00:43.999Z</time></trkpt><trkpt lat="43.36647999284466" lon="10.82771377546662"><ele>124.0</ele><time>2026-04-18T09:00:50.999Z</time></trkpt><trkpt lat="43.36649806801531" lon="10.827797810717346"><ele>124.00000000000001</ele><time>2026-04-18T09:00:56.999Z</time></trkpt><trkpt lat="43.36654344338793" lon="10.827858479936436"><ele>124.0</ele><time>2026-04-18T09:01:03.999Z</time></trkpt><trkpt lat="43.366608094476746" lon="10.827856693609764"><ele>124.0</ele><time>2026-04-18T09:01:11.999Z</time></trkpt><trkpt lat="43.366660469080095" lon="10.827805452142417"><ele>124.00000000000001</ele><time>2026-04-18T09:01:20.998Z</time></trkpt><trkpt lat="43.36668584789727" lon="10.827723431024415"><ele>124.0</ele><time>2026-04-18T09:01:31Z</time></trkpt><trkpt lat="43.36670532608075" lon="10.827632300909952"><ele>124.0</ele><time>2026-04-18T09:01:39Z</time></trkpt><trkpt lat="43.36674370218786" lon="10.827560331307119"><ele>124.0</ele><time>2026-04-18T09:01:46Z</time></trkpt><trkpt lat="43.36673193542075" lon="10.827469468925955"><ele>124.00000000000001</ele><time>2026-04-18T09:01:56Z</time></trkpt><trkpt lat="43.36679305700538" lon="10.827413551007194"><ele>124.0</ele><time>2026-04-18T09:02:07Z</time></trkpt><trkpt lat="43.3668192165096" lon="10.827330477945049"><ele>124.0</ele><time>2026-04-18T09:02:14Z</time></trkpt><trkpt lat="43.36680822176535" lon="10.827236418826223"><ele>124.00000000000001</ele><time>2026-04-18T09:02:23Z</time></trkpt><trkpt lat="43.366797178887026" lon="10.827142229014001"><ele>124.0</ele><time>2026-04-18T09:02:30.999Z</time></trkpt><trkpt lat="43.366751232737286" lon="10.827075181270102"><ele>124.0</ele><time>2026-04-18T09:02:38.999Z</time></trkpt><trkpt lat="43.366685285355466" lon="10.827062260317557"><ele>124.0</ele><time>2026-04-18T09:02:57.999Z</time></trkpt><trkpt lat="43.36661791422412" lon="10.827074041706911"><ele>124.00000000000001</ele><time>2026-04-18T09:03:07.999Z</time></trkpt><trkpt lat="43.366546351112994" lon="10.82708779326624"><ele>124.0</ele><time>2026-04-18T09:03:15.999Z</time></trkpt><trkpt lat="43.36648171624876" lon="10.827056754532457"><ele>124.0</ele><time>2026-04-18T09:03:59Z</time></trkpt><trkpt lat="43.36642449737819" lon="10.82700250355211"><ele>124.00000000000001</ele><time>2026-04-18T09:04:16Z</time></trkpt><trkpt lat="43.36639781899259" lon="10.826900244280425"><ele>124.0</ele><time>2026-04-18T09:04:24Z</time></trkpt><trkpt lat="43.366379384537545" lon="10.82680419496473"><ele>124.0</ele><time>2026-04-18T09:04:31Z</time></trkpt><trkpt lat="43.36635477803165" lon="10.826714541524407"><ele>123.57142857142858</ele><time>2026-04-18T09:04:39.999Z</time></trkpt><trkpt lat="43.36634636634053" lon="10.826577686100094"><ele>123.14285714285715</ele><time>2026-04-18T09:05:02.999Z</time></trkpt><trkpt lat="43.366327757799695" lon="10.82649119950878"><ele>122.71428571428572</ele><time>2026-04-18T09:05:10.999Z</time></trkpt><trkpt lat="43.366314432046906" lon="10.826400896227236"><ele>122.28571428571428</ele><time>2026-04-18T09:05:22.999Z</time></trkpt><trkpt lat="43.36630428183064" lon="10.826315399296428"><ele>121.85714285714285</ele><time>2026-04-18T09:05:32.998Z</time></trkpt><trkpt lat="43.36628459715812" lon="10.826214743121685"><ele>121.42857142857142</ele><time>2026-04-18T09:05:45Z</time></trkpt><trkpt lat="43.366241715453384" lon="10.826145112884053"><ele>121.0</ele><time>2026-04-18T09:05:53Z</time></trkpt><trkpt lat="43.366196346969524" lon="10.82608086879567"><ele>121.0</ele><time>2026-04-18T09:06:00Z</time></trkpt><trkpt lat="43.36615488621444" lon="10.826008208363026"><ele>120.99999999999999</ele><time>2026-04-18T09:06:07Z</time></trkpt><trkpt lat="43.366109253517855" lon="10.825932197586006"><ele>121.0</ele><time>2026-04-18T09:06:16Z</time></trkpt><trkpt lat="43.366073470723414" lon="10.825854700494835"><ele>121.0</ele><time>2026-04-18T09:06:23Z</time></trkpt><trkpt lat="43.366039618855424" lon="10.82577696268161"><ele>120.99999999999999</ele><time>2026-04-18T09:06:34Z</time></trkpt><trkpt lat="43.366004761549156" lon="10.82570036186383"><ele>121.0</ele><time>2026-04-18T09:06:41.999Z</time></trkpt><trkpt lat="43.365980747482816" lon="10.82560826406396"><ele>121.0</ele><time>2026-04-18T09:07:05.999Z</time></trkpt><trkpt lat="43.3659177726441" lon="10.825639801252198"><ele>121.0</ele><time>2026-04-18T09:07:11.999Z</time></trkpt><trkpt lat="43.365904696972095" lon="10.82572679293859"><ele>120.99999999999999</ele><time>2026-04-18T09:07:18.999Z</time></trkpt><trkpt lat="43.36592317289331" lon="10.825821443156123"><ele>121.0</ele><time>2026-04-18T09:07:28.999Z</time></trkpt><trkpt lat="43.36595425363597" lon="10.825899900596996"><ele>121.0</ele><time>2026-04-18T09:07:40Z</time></trkpt><trkpt lat="43.36599384540574" lon="10.825983506855074"><ele>120.99999999999999</ele><time>2026-04-18T09:07:49Z</time></trkpt><trkpt lat="43.366044241939484" lon="10.826057959903391"><ele>121.0</ele><time>2026-04-18T09:07:57Z</time></trkpt><trkpt lat="43.36608748762164" lon="10.826132903203458"><ele>121.0</ele><time>2026-04-18T09:08:03Z</time></trkpt><trkpt lat="43.366116283101135" lon="10.826213895076052"><ele>121.0</ele><time>2026-04-18T09:08:11Z</time></trkpt><trkpt lat="43.366135776307324" lon="10.82629787409176"><ele>120.99999999999999</ele><time>2026-04-18T09:08:19Z</time></trkpt><trkpt lat="43.36611012284287" lon="10.82638047697055"><ele>121.0</ele><time>2026-04-18T09:08:31Z</time></trkpt><trkpt lat="43.36605742893088" lon="10.826437774124617"><ele>121.0</ele><time>2026-04-18T09:08:38Z</time></trkpt><trkpt lat="43.36599375500546" lon="10.826390706464405"><ele>120.99999999999999</ele><time>2026-04-18T09:08:48.999Z</time></trkpt><trkpt lat="43.36594113955953" lon="10.826337136774582"><ele>121.0</ele><time>2026-04-18T09:08:56.999Z</time></trkpt><trkpt lat="43.365891057065646" lon="10.826276839891166"><ele>121.0</ele><time>2026-04-18T09:09:02.999Z</time></trkpt><trkpt lat="43.36585766367778" lon="10.826199652647833"><ele>121.0</ele><time>2026-04-18T09:09:07.999Z</time></trkpt><trkpt lat="43.36582001613131" lon="10.826117118272363"><ele>120.99999999999999</ele><time>2026-04-18T09:09:12.999Z</time></trkpt><trkpt lat="43.365794034008935" lon="10.826034863055636"><ele>121.0</ele><time>2026-04-18T09:09:17.999Z</time></trkpt><trkpt lat="43.3657743494584" lon="10.825947916522892"><ele>121.0</ele><time>2026-04-18T09:09:23.999Z</time></trkpt><trkpt lat="43.36577504231652" lon="10.825851710499789"><ele>120.99999999999999</ele><time>2026-04-18T09:09:30.999Z</time></trkpt><trkpt lat="43.36579085189693" lon="10.825754677124358"><ele>121.0</ele><time>2026-04-18T09:09:37.999Z</time></trkpt><trkpt lat="43.365833760726005" lon="10.825670063484571"><ele>121.0</ele><time>2026-04-18T09:09:44.998Z</time></trkpt><trkpt lat="43.36586203728272" lon="10.825581659841458"><ele>121.71428571428571</ele><time>2026-04-18T09:09:52Z</time></trkpt><trkpt lat="43.36589580141464" lon="10.825505398956325"><ele>122.42857142857142</ele><time>2026-04-18T09:09:59Z</time></trkpt><trkpt lat="43.365922001903364" lon="10.82542100249269"><ele>123.14285714285714</ele><time>2026-04-18T09:10:06Z</time></trkpt><trkpt lat="43.365913586749265" lon="10.825326037558279"><ele>123.85714285714286</ele><time>2026-04-18T09:10:13Z</time></trkpt><trkpt lat="43.365890810745384" lon="10.825238489134078"><ele>124.57142857142857</ele><time>2026-04-18T09:10:24Z</time></trkpt><trkpt lat="43.36585642826114" lon="10.825163007105935"><ele>125.28571428571428</ele><time>2026-04-18T09:10:30Z</time></trkpt><trkpt lat="43.36583366032411" lon="10.825079759617322"><ele>126.0</ele><time>2026-04-18T09:10:36Z</time></trkpt><trkpt lat="43.36581222449218" lon="10.824993473908378"><ele>126.14285714285714</ele><time>2026-04-18T09:10:42Z</time></trkpt><trkpt lat="43.36578428441455" lon="10.824902827741576"><ele>126.28571428571428</ele><time>2026-04-18T09:10:48Z</time></trkpt><trkpt lat="43.36576861328786" lon="10.824809916526476"><ele>126.42857142857143</ele><time>2026-04-18T09:10:53.999Z</time></trkpt><trkpt lat="43.365742394353184" lon="10.824716208563357"><ele>126.57142857142857</ele><time>2026-04-18T09:11:00.999Z</time></trkpt><trkpt lat="43.36573672126252" lon="10.824628111331267"><ele>126.71428571428571</ele><time>2026-04-18T09:11:06.999Z</time></trkpt><trkpt lat="43.365706310258346" lon="10.82454287679987"><ele>126.85714285714286</ele><time>2026-04-18T09:11:12.999Z</time></trkpt><trkpt lat="43.36564619355267" lon="10.824574333374198"><ele>127.0</ele><time>2026-04-18T09:11:24.999Z</time></trkpt><trkpt lat="43.36566861948617" lon="10.824667656513835"><ele>127.0</ele><time>2026-04-18T09:11:32.999Z</time></trkpt><trkpt lat="43.36569530582902" lon="10.824748382287517"><ele>127.0</ele><time>2026-04-18T09:11:39.999Z</time></trkpt><trkpt lat="43.36570969842593" lon="10.824835451795591"><ele>127.0</ele><time>2026-04-18T09:11:46.999Z</time></trkpt><trkpt lat="43.365723632702654" lon="10.824924739237174"><ele>127.0</ele><time>2026-04-18T09:11:54Z</time></trkpt><trkpt lat="43.36574849293121" lon="10.825022119131885"><ele>127.0</ele><time>2026-04-18T09:12:01Z</time></trkpt><trkpt lat="43.36577192815458" lon="10.825115259301402"><ele>127.0</ele><time>2026-04-18T09:12:08Z</time></trkpt><trkpt lat="43.3657740320369" lon="10.825206702929762"><ele>127.0</ele><time>2026-04-18T09:12:14Z</time></trkpt><trkpt lat="43.36574138206528" lon="10.825287832885534"><ele>126.85714285714286</ele><time>2026-04-18T09:12:22Z</time></trkpt><trkpt lat="43.36570728528022" lon="10.825360867740423"><ele>126.71428571428571</ele><time>2026-04-18T09:12:28Z</time></trkpt><trkpt lat="43.36564978785753" lon="10.825412023538435"><ele>126.57142857142857</ele><time>2026-04-18T09:12:36Z</time></trkpt><trkpt lat="43.3655851394394" lon="10.825422817380725"><ele>126.42857142857143</ele><time>2026-04-18T09:12:44Z</time></trkpt><trkpt lat="43.36552059687305" lon="10.825387520296239"><ele>126.28571428571428</ele><time>2026-04-18T09:12:56Z</time></trkpt><trkpt lat="43.36548067239738" lon="10.825306815045668"><ele>126.14285714285714</ele><time>2026-04-18T09:13:02.999Z</time></trkpt><trkpt lat="43.36549288775948" lon="10.825207952179095"><ele>126.0</ele><time>2026-04-18T09:13:12.999Z</time></trkpt><trkpt lat="43.36550719789612" lon="10.825121140483187"><ele>126.14285714285714</ele><time>2026-04-18T09:13:18.999Z</time></trkpt><trkpt lat="43.3655086691333" lon="10.82503235329624"><ele>126.28571428571428</ele><time>2026-04-18T09:13:25.999Z</time></trkpt><trkpt lat="43.36553550467057" lon="10.824951588531729"><ele>126.42857142857143</ele><time>2026-04-18T09:13:32.999Z</time></trkpt><trkpt lat="43.36553965330331" lon="10.82486333832747"><ele>126.57142857142857</ele><time>2026-04-18T09:13:41.999Z</time></trkpt><trkpt lat="43.365530036335585" lon="10.824772714388889"><ele>126.71428571428571</ele><time>2026-04-18T09:13:51.999Z</time></trkpt><trkpt lat="43.36553021600083" lon="10.82468558501036"><ele>126.85714285714286</ele><time>2026-04-18T09:13:59Z</time></trkpt><trkpt lat="43.36552459136106" lon="10.82459741178891"><ele>127.0</ele><time>2026-04-18T09:14:06Z</time></trkpt><trkpt lat="43.36551725577182" lon="10.824511069248203"><ele>125.0</ele><time>2026-04-18T09:15:32.999Z</time></trkpt><trkpt lat="43.365524030928555" lon="10.824422073487993"><ele>123.0</ele><time>2026-04-18T09:15:38.999Z</time></trkpt><trkpt lat="43.365526887640875" lon="10.824328121762896"><ele>121.0</ele><time>2026-04-18T09:15:44.999Z</time></trkpt><trkpt lat="43.365522775667756" lon="10.824234211326837"><ele>119.0</ele><time>2026-04-18T09:15:51.999Z</time></trkpt><trkpt lat="43.3654907468571" lon="10.824145301297454"><ele>117.0</ele><time>2026-04-18T09:15:59.999Z</time></trkpt><trkpt lat="43.365482621000304" lon="10.824054209930997"><ele>115.0</ele><time>2026-04-18T09:16:10Z</time></trkpt><trkpt lat="43.36542059201876" lon="10.824013664262935"><ele>113.0</ele><time>2026-04-18T09:16:18.999Z</time></trkpt><trkpt lat="43.36537677339969" lon="10.823937320598654"><ele>113.0</ele><time>2026-04-18T09:16:25.999Z</time></trkpt><trkpt lat="43.365327050708714" lon="10.823868366203925"><ele>113.0</ele><time>2026-04-18T09:16:32.999Z</time></trkpt><trkpt lat="43.36527665758566" lon="10.823813038085484"><ele>113.0</ele><time>2026-04-18T09:16:38.999Z</time></trkpt><trkpt lat="43.36523291307369" lon="10.82373094004623"><ele>113.0</ele><time>2026-04-18T09:16:43.999Z</time></trkpt><trkpt lat="43.36519202950285" lon="10.823644235204618"><ele>113.0</ele><time>2026-04-18T09:16:49.999Z</time></trkpt><trkpt lat="43.365162577587284" lon="10.823561533401925"><ele>113.0</ele><time>2026-04-18T09:16:55.999Z</time></trkpt><trkpt lat="43.36513507584356" lon="10.823472518173384"><ele>113.0</ele><time>2026-04-18T09:17:01.999Z</time></trkpt><trkpt lat="43.3651178669553" lon="10.823379563707306"><ele>113.85714285714286</ele><time>2026-04-18T09:17:09.999Z</time></trkpt><trkpt lat="43.36508155943162" lon="10.823298699008198"><ele>114.71428571428571</ele><time>2026-04-18T09:17:15.998Z</time></trkpt><trkpt lat="43.365055797314305" lon="10.82320178503345"><ele>115.57142857142857</ele><time>2026-04-18T09:17:23.998Z</time></trkpt><trkpt lat="43.365034064517204" lon="10.823118646151562"><ele>116.42857142857143</ele><time>2026-04-18T09:17:30.998Z</time></trkpt><trkpt lat="43.365005576636534" lon="10.823016410527195"><ele>117.28571428571428</ele><time>2026-04-18T09:17:37.998Z</time></trkpt><trkpt lat="43.364974679820875" lon="10.822922714162374"><ele>118.14285714285714</ele><time>2026-04-18T09:17:43.998Z</time></trkpt><trkpt lat="43.36494144726214" lon="10.822844658504241"><ele>119.0</ele><time>2026-04-18T09:17:48.998Z</time></trkpt><trkpt lat="43.364913028649504" lon="10.822750763655629"><ele>119.0</ele><time>2026-04-18T09:17:54.998Z</time></trkpt><trkpt lat="43.36487696006205" lon="10.822677218877553"><ele>119.0</ele><time>2026-04-18T09:17:59.998Z</time></trkpt><trkpt lat="43.36483801810925" lon="10.822596138451082"><ele>119.0</ele><time>2026-04-18T09:18:05.998Z</time></trkpt><trkpt lat="43.364762661545285" lon="10.822581063700047"><ele>119.0</ele><time>2026-04-18T09:18:12.999Z</time></trkpt><trkpt lat="43.36469427014427" lon="10.822614846523699"><ele>119.0</ele><time>2026-04-18T09:18:17.999Z</time></trkpt><trkpt lat="43.36466303951942" lon="10.822706943828656"><ele>119.0</ele><time>2026-04-18T09:18:27.999Z</time></trkpt><trkpt lat="43.36461318598419" lon="10.822776101297388"><ele>119.0</ele><time>2026-04-18T09:18:36.999Z</time></trkpt><trkpt lat="43.364548960758796" lon="10.822800015127761"><ele>118.57142857142857</ele><time>2026-04-18T09:18:41.999Z</time></trkpt><trkpt lat="43.36448220139383" lon="10.822788333726718"><ele>118.14285714285714</ele><time>2026-04-18T09:18:47.999Z</time></trkpt><trkpt lat="43.364458761522464" lon="10.82269713770532"><ele>117.71428571428572</ele><time>2026-04-18T09:18:54.999Z</time></trkpt><trkpt lat="43.36448318344372" lon="10.822603242648887"><ele>117.28571428571429</ele><time>2026-04-18T09:19:04.999Z</time></trkpt><trkpt lat="43.36451447067816" lon="10.822515826726125"><ele>116.85714285714286</ele><time>2026-04-18T09:19:15.999Z</time></trkpt><trkpt lat="43.36454664724041" lon="10.822433397269759"><ele>116.42857142857144</ele><time>2026-04-18T09:19:24.998Z</time></trkpt><trkpt lat="43.36457513973844" lon="10.822352898742544"><ele>116.00000000000001</ele><time>2026-04-18T09:19:33.998Z</time></trkpt><trkpt lat="43.364561096950574" lon="10.822265960658447"><ele>116.00000000000001</ele><time>2026-04-18T09:19:45.998Z</time></trkpt><trkpt lat="43.36452284415009" lon="10.822193858978318"><ele>116.0</ele><time>2026-04-18T09:19:54.998Z</time></trkpt><trkpt lat="43.36446471217255" lon="10.822143394911743"><ele>116.00000000000001</ele><time>2026-04-18T09:20:01.998Z</time></trkpt><trkpt lat="43.36441390428402" lon="10.822078660329625"><ele>116.00000000000001</ele><time>2026-04-18T09:20:07.998Z</time></trkpt><trkpt lat="43.36435232082572" lon="10.8220254402615"><ele>116.0</ele><time>2026-04-18T09:20:13.998Z</time></trkpt><trkpt lat="43.364279303591104" lon="10.822033475009032"><ele>116.00000000000001</ele><time>2026-04-18T09:20:20.999Z</time></trkpt><trkpt lat="43.364207346443806" lon="10.822006307761336"><ele>116.00000000000001</ele><time>2026-04-18T09:20:26.999Z</time></trkpt><trkpt lat="43.36415689436211" lon="10.821943726490138"><ele>116.0</ele><time>2026-04-18T09:20:32.999Z</time></trkpt><trkpt lat="43.36410777095064" lon="10.821883763327094"><ele>116.0</ele><time>2026-04-18T09:20:39.999Z</time></trkpt></trkseg></trk></gpx>